createdAt,value
2023-01-21T00:00:27.300Z,56.40
2023-01-21T00:02:56.716Z,56.30
2023-01-21T00:05:26.080Z,55.80
2023-01-21T00:07:55.625Z,55.40
2023-01-21T00:10:25.006Z,56.40
2023-01-21T00:12:54.395Z,54.60
2023-01-21T00:15:23.793Z,54.70
2023-01-21T00:17:54.703Z,55.30
2023-01-21T00:20:24.159Z,54.70
2023-01-21T00:22:55.508Z,53.70
2023-01-21T00:25:24.893Z,52.80
2023-01-21T00:27:54.265Z,53.00
2023-01-21T00:30:23.755Z,52.10
2023-01-21T00:32:54.207Z,53.00
2023-01-21T00:35:24.608Z,52.50
2023-01-21T00:37:54.737Z,52.40
2023-01-21T00:40:24.301Z,53.10
2023-01-21T00:42:53.668Z,53.00
2023-01-21T00:45:23.241Z,53.30
2023-01-21T00:47:52.598Z,53.80
2023-01-21T00:50:22.044Z,53.50
2023-01-21T00:52:51.592Z,53.30
2023-01-21T00:55:21.383Z,53.80
2023-01-21T00:57:50.730Z,53.70
2023-01-21T01:00:21.120Z,52.70
2023-01-21T01:02:50.541Z,52.10
2023-01-21T01:05:21.040Z,50.30
2023-01-21T01:07:51.923Z,49.30
2023-01-21T01:10:21.290Z,48.90
2023-01-21T01:12:50.695Z,48.90
2023-01-21T01:15:20.767Z,48.10
2023-01-21T01:17:50.219Z,46.90
2023-01-21T01:20:19.643Z,46.00
2023-01-21T01:22:49.413Z,46.50
2023-01-21T01:25:18.839Z,46.50
2023-01-21T01:27:48.258Z,46.20
2023-01-21T01:53:51.647Z,41.90
2023-01-21T01:56:21.469Z,41.40
2023-01-21T01:58:51.654Z,42.60
2023-01-21T02:01:21.024Z,42.30
2023-01-21T02:03:58.500Z,42.00
2023-01-21T02:06:28.896Z,41.30
2023-01-21T02:08:59.037Z,41.30
2023-01-21T02:11:28.473Z,42.80
2023-01-21T02:14:01.047Z,41.10
2023-01-21T02:16:47.813Z,42.30
2023-01-21T02:19:17.308Z,41.00
2023-01-21T02:21:49.505Z,40.00
2023-01-21T02:24:33.951Z,40.90
2023-01-21T02:27:30.801Z,40.50
2023-01-21T02:30:06.952Z,40.70
2023-01-21T02:32:56.132Z,40.20
2023-01-21T02:35:27.600Z,40.20
2023-01-21T02:38:09.909Z,39.90
2023-01-21T02:40:52.443Z,38.10
2023-01-21T02:43:44.887Z,39.20
2023-01-21T02:46:29.115Z,40.30
2023-01-21T02:49:16.667Z,39.20
2023-01-21T03:33:57.986Z,35.40
2023-01-21T03:36:36.569Z,34.70
2023-01-21T03:39:24.621Z,35.70
2023-01-21T03:41:54.005Z,36.40
2023-01-21T03:44:23.478Z,36.30
2023-01-21T03:47:13.356Z,34.80
2023-01-21T03:49:45.565Z,34.40
2023-01-21T03:52:15.864Z,34.80
2023-01-21T03:54:45.297Z,34.60
2023-01-21T03:57:14.660Z,34.50
2023-01-21T03:59:44.107Z,34.40
2023-01-21T04:02:13.833Z,35.50
2023-01-21T04:04:43.190Z,35.60
2023-01-21T04:07:12.579Z,34.80
2023-01-21T04:09:41.983Z,35.40
2023-01-21T04:12:11.361Z,35.10
2023-01-21T04:14:41.160Z,35.30
2023-01-21T04:17:10.521Z,35.30
2023-01-21T04:19:39.976Z,35.40
2023-01-21T04:22:10.538Z,35.50
2023-01-21T04:24:40.898Z,35.30
2023-01-21T04:27:10.349Z,35.50
2023-01-21T04:29:39.855Z,35.50
2023-01-21T05:29:23.851Z,35.20
2023-01-21T05:31:53.237Z,35.30
2023-01-21T05:34:22.677Z,34.30
2023-01-21T05:36:53.517Z,34.80
2023-01-21T05:39:22.932Z,34.30
2023-01-21T05:41:52.274Z,34.20
2023-01-21T05:44:22.631Z,34.50
2023-01-21T05:46:51.997Z,34.10
2023-01-21T05:49:21.902Z,33.70
2023-01-21T05:51:51.264Z,34.10
2023-01-21T05:54:21.075Z,35.30
2023-01-21T05:56:50.562Z,35.30
2023-01-21T05:59:19.903Z,35.90
2023-01-21T06:01:49.651Z,35.40
2023-01-21T06:04:19.081Z,35.70
2023-01-21T06:06:49.485Z,36.40
2023-01-21T06:09:18.824Z,36.40
2023-01-21T06:11:48.365Z,36.00
2023-01-21T06:14:18.775Z,36.20
2023-01-21T06:16:48.673Z,36.60
2023-01-21T06:19:18.488Z,36.80
2023-01-21T06:21:48.944Z,36.60
2023-01-21T06:24:18.374Z,36.60
2023-01-21T09:29:28.152Z,56.30
2023-01-21T09:31:58.953Z,56.00
2023-01-21T09:34:29.022Z,55.80
2023-01-21T09:36:58.372Z,56.20
2023-01-21T09:39:27.807Z,56.30
2023-01-21T09:41:58.800Z,56.20
2023-01-21T09:44:34.615Z,56.30
2023-01-21T09:47:22.625Z,56.70
2023-01-21T09:49:55.178Z,56.90
2023-01-21T09:52:56.747Z,57.20
2023-01-21T09:55:29.792Z,57.40
2023-01-21T09:58:14.838Z,57.50
2023-01-21T10:01:02.991Z,57.90
2023-01-21T10:03:41.836Z,58.00
2023-01-21T10:06:18.578Z,58.40
2023-01-21T10:09:21.787Z,58.50
2023-01-21T10:11:54.604Z,58.70
2023-01-21T10:14:43.115Z,59.00
2023-01-21T10:17:29.931Z,58.80
2023-01-21T10:20:15.749Z,59.10
2023-01-21T10:22:49.756Z,59.20
2023-01-21T10:25:26.439Z,59.30
2023-01-21T10:27:56.710Z,59.30
2023-01-21T10:30:29.956Z,59.80
2023-01-21T10:32:59.367Z,59.70
2023-01-21T10:35:41.027Z,59.80
2023-01-21T10:38:29.197Z,59.90
2023-01-21T10:41:12.164Z,59.60
2023-01-21T10:43:41.913Z,59.80
2023-01-21T10:46:18.999Z,59.70
2023-01-21T10:48:58.750Z,60.30
2023-01-21T10:51:30.637Z,60.50
2023-01-21T10:54:04.263Z,60.60
2023-01-21T10:57:09.406Z,60.40
2023-01-21T10:59:40.809Z,60.80
2023-01-21T11:02:10.560Z,60.70
2023-01-21T11:04:42.058Z,60.70
2023-01-21T11:07:13.762Z,60.60
2023-01-21T11:09:45.363Z,60.90
2023-01-21T11:12:18.192Z,60.80
2023-01-21T11:14:53.244Z,61.40
2023-01-21T11:17:38.667Z,61.10
2023-01-21T16:31:22.578Z,71.00
2023-01-21T16:33:53.422Z,71.00
2023-01-21T16:36:23.327Z,71.10
2023-01-21T16:38:53.120Z,71.10
2023-01-21T16:41:25.637Z,71.10
2023-01-21T16:44:01.658Z,71.50
2023-01-21T16:46:38.164Z,71.70
2023-01-21T16:49:09.036Z,71.70
2023-01-21T16:51:39.198Z,71.40
2023-01-21T16:54:37.999Z,71.80
2023-01-21T16:57:21.042Z,71.80
2023-01-21T16:59:50.883Z,71.90
2023-01-21T17:02:22.272Z,72.00
2023-01-21T17:04:52.243Z,71.80
2023-01-21T17:07:26.734Z,71.50
2023-01-21T17:10:07.149Z,71.70
2023-01-21T17:12:37.999Z,72.10
2023-01-21T17:15:11.679Z,71.80
2023-01-21T17:17:41.431Z,72.40
2023-01-21T17:20:30.581Z,72.30
2023-01-21T17:23:04.844Z,72.40
2023-01-21T17:25:34.272Z,72.20
2023-01-21T17:28:19.148Z,72.30
2023-01-21T17:30:49.233Z,72.60
2023-01-21T17:33:32.196Z,72.50
2023-01-21T17:36:09.192Z,72.60
2023-01-21T17:38:43.101Z,72.50
2023-01-21T17:41:19.934Z,72.70
2023-01-21T17:43:50.948Z,72.70
2023-01-21T17:46:24.553Z,72.60
2023-01-21T17:48:55.845Z,72.70
2023-01-21T17:51:26.681Z,72.90
2023-01-21T17:54:01.554Z,72.90
2023-01-21T17:56:43.014Z,72.80
2023-01-21T17:59:28.843Z,73.00
2023-01-21T18:01:58.250Z,73.20
2023-01-21T18:04:28.724Z,73.30
2023-01-21T18:06:58.787Z,73.50
2023-01-21T18:09:29.825Z,73.10
2023-01-21T18:11:59.951Z,73.20
2023-01-21T18:14:30.758Z,73.40
2023-01-21T18:17:00.230Z,73.10
2023-01-21T18:19:37.113Z,73.10
2023-01-21T18:22:07.800Z,73.30
2023-01-21T18:24:39.214Z,73.30
2023-01-21T18:27:10.835Z,73.10
2023-01-21T18:29:41.254Z,72.90
2023-01-21T18:32:13.486Z,73.20
2023-01-21T18:34:44.129Z,73.40
2023-01-21T18:37:18.749Z,73.70
2023-01-21T18:39:49.096Z,73.60
2023-01-21T18:42:19.968Z,73.20
2023-01-21T18:44:49.310Z,73.80
2023-01-21T18:47:20.644Z,73.80
2023-01-21T18:49:51.228Z,73.60
2023-01-21T18:52:22.588Z,73.30
2023-01-21T18:54:52.373Z,73.50
2023-01-21T18:57:24.693Z,73.50
2023-01-21T18:59:54.444Z,73.40
2023-01-21T19:02:24.192Z,73.30
2023-01-21T19:04:54.032Z,73.60
2023-01-21T19:07:25.104Z,73.80
2023-01-21T19:09:55.488Z,74.30
2023-01-21T19:12:26.334Z,73.80
2023-01-21T19:14:56.267Z,74.00
2023-01-21T19:17:28.652Z,73.80
2023-01-21T19:19:58.581Z,73.70
2023-01-21T19:22:27.961Z,73.30
2023-01-21T19:24:58.379Z,73.40
2023-01-21T19:27:30.035Z,73.30
2023-01-21T19:30:00.651Z,73.30
2023-01-21T19:32:30.506Z,73.20
2023-01-21T19:35:00.496Z,73.20
2023-01-21T19:37:31.250Z,73.30
2023-01-21T19:40:01.633Z,73.30
2023-01-21T19:42:31.359Z,73.40
2023-01-21T19:45:01.545Z,73.50
2023-01-21T19:47:31.763Z,73.70
2023-01-21T19:50:01.567Z,73.40
2023-01-21T19:52:31.373Z,73.30
2023-01-21T19:55:01.136Z,73.90
2023-01-21T19:57:31.622Z,74.00
2023-01-21T20:00:04.289Z,73.70
2023-01-21T20:02:33.845Z,74.10
2023-01-21T20:05:03.157Z,73.90
2023-01-21T20:07:32.640Z,73.90
2023-01-21T20:12:31.606Z,74.00
2023-01-21T20:15:01.371Z,74.30
2023-01-21T20:17:36.468Z,74.30
2023-01-21T20:20:16.015Z,74.30
2023-01-21T20:22:45.449Z,73.60
2023-01-21T20:25:17.285Z,72.90
2023-01-21T20:27:50.920Z,72.50
2023-01-21T20:30:28.376Z,72.10
2023-01-21T20:32:58.128Z,71.80
2023-01-21T20:35:29.661Z,71.60
2023-01-21T20:38:01.208Z,72.10
2023-01-21T20:40:31.750Z,72.00
2023-01-21T20:43:02.192Z,72.00
2023-01-21T20:45:37.960Z,71.30
2023-01-21T20:48:08.841Z,71.20
2023-01-21T20:50:38.674Z,71.00
2023-01-21T20:53:08.177Z,70.90
2023-01-21T20:55:37.576Z,70.40
2023-01-21T20:58:07.345Z,70.50
2023-01-21T21:00:37.637Z,69.80
2023-01-21T21:03:07.488Z,70.00
2023-01-21T21:05:37.299Z,70.00
2023-01-21T21:08:06.923Z,69.80
2023-01-21T21:10:41.347Z,69.70
2023-01-21T21:13:12.267Z,69.40
2023-01-21T21:15:41.709Z,69.20
2023-01-21T21:18:14.730Z,68.70
2023-01-21T21:20:45.249Z,68.40
2023-01-21T21:23:16.630Z,68.20
2023-01-21T21:25:49.867Z,67.50
2023-01-21T21:28:20.118Z,67.50
2023-01-21T21:30:49.518Z,67.90
2023-01-21T21:33:24.005Z,67.40
2023-01-21T21:35:53.546Z,67.00
2023-01-21T21:38:28.813Z,66.70
